Time;durP1;ratioP1;P1;durP2;ratioP2;P2;SDS_P1;SDS_P2;PMS_P1;PMS_P2;Temp;Humidity;BMP_temperature;BMP_pressure;BME280_temperature;BME280_humidity;BME280_pressure;Samples;Min_cycle;Max_cycle;Signal;HPM_P1;HPM_P2
2021/11/04 00:01:52;;;;;;;10.40;9.27;;;12.50;82.50;;;12.07;68.72;93292.31;4943624;28;20218;-82
2021/11/04 00:04:24;;;;;;;10.80;9.73;;;12.50;82.50;;;12.10;68.56;93304.97;4943795;28;20301;-82
2021/11/04 00:06:55;;;;;;;10.50;9.43;;;12.50;82.50;;;12.07;69.02;93306.25;4943315;28;20827;-82
2021/11/04 00:09:22;;;;;;;10.57;9.48;;;12.60;82.60;;;12.09;68.72;93311.25;4943668;28;20288;-82
2021/11/04 00:11:50;;;;;;;9.68;8.75;;;12.50;82.50;;;12.03;68.84;93302.50;4974975;28;20640;-81
2021/11/04 00:14:17;;;;;;;10.15;9.15;;;12.60;82.60;;;12.10;68.81;93299.72;4943364;28;20567;-82
2021/11/04 00:16:45;;;;;;;10.77;9.68;;;12.60;82.60;;;12.09;68.64;93287.63;4971224;28;20222;-81
2021/11/04 00:19:12;;;;;;;10.43;9.43;;;12.50;82.50;;;12.12;68.95;93306.31;4923926;29;20237;-82
2021/11/04 00:21:39;;;;;;;9.10;8.20;;;12.50;82.50;;;12.13;68.73;93291.34;4923898;29;20720;-83
2021/11/04 00:24:06;;;;;;;10.23;9.20;;;12.50;82.50;;;12.15;68.85;93270.88;4923851;29;20210;-83
2021/11/04 00:26:35;;;;;;;9.18;8.18;;;12.60;82.60;;;12.14;68.54;93272.69;4928444;29;20227;-82
2021/11/04 00:29:02;;;;;;;9.45;8.55;;;12.60;82.60;;;12.15;69.05;93270.88;4923940;28;20255;-83
2021/11/04 00:31:29;;;;;;;9.82;8.82;;;12.60;82.60;;;12.13;68.91;93265.06;4940002;29;20215;-83
2021/11/04 00:33:57;;;;;;;10.35;9.35;;;12.60;82.60;;;12.16;68.66;93269.84;4924279;28;20195;-82
2021/11/04 00:36:24;;;;;;;9.80;8.90;;;12.60;82.60;;;12.13;68.94;93252.72;4942946;28;20695;-82
2021/11/04 00:38:51;;;;;;;10.02;9.02;;;12.60;82.60;;;12.16;68.80;93262.75;4942944;28;20273;-83
2021/11/04 00:41:19;;;;;;;11.85;10.65;;;12.60;82.60;;;12.15;68.89;93250.63;4943055;28;20257;-83
2021/11/04 00:43:46;;;;;;;17.70;11.00;;;12.60;82.70;;;12.18;68.70;93267.75;4942672;28;20209;-82
2021/11/04 00:46:14;;;;;;;12.10;10.75;;;12.60;82.70;;;12.17;68.75;93260.94;4929594;29;20219;-81
2021/11/04 00:48:42;;;;;;;17.98;11.85;;;12.60;82.60;;;12.15;68.83;93252.47;4908333;29;20207;-83
2021/11/04 00:51:09;;;;;;;48.65;12.30;;;12.70;82.70;;;12.17;69.02;93253.03;4923563;29;20223;-82
2021/11/04 00:53:37;;;;;;;55.38;13.30;;;12.60;82.60;;;12.19;68.91;93264.09;4928840;28;20210;-81
2021/11/04 00:56:04;;;;;;;40.05;13.93;;;12.60;82.60;;;12.17;68.73;93268.81;4942567;28;20269;-83
2021/11/04 00:58:33;;;;;;;77.55;13.90;;;12.60;82.60;;;12.16;68.41;93265.38;4974596;28;20202;-83
2021/11/04 01:01:00;;;;;;;83.20;14.55;;;12.60;82.60;;;12.12;68.81;93261.66;4958451;28;20234;-83
2021/11/04 01:03:27;;;;;;;113.05;14.43;;;12.60;82.60;;;12.14;68.85;93264.03;4941333;28;20198;-83
2021/11/04 01:05:54;;;;;;;84.75;14.18;;;12.60;82.60;;;12.14;68.78;93262.19;4942323;29;20835;-83
2021/11/04 01:08:21;;;;;;;88.28;13.60;;;12.60;82.60;;;12.09;68.74;93251.59;4923161;29;20201;-82
2021/11/04 01:10:49;;;;;;;91.32;12.77;;;12.60;82.60;;;12.12;68.84;93256.38;4939345;28;20334;-82
2021/11/04 01:13:16;;;;;;;111.53;13.23;;;12.60;82.60;;;12.11;69.07;93239.03;4942669;28;20213;-82
2021/11/04 01:15:43;;;;;;;102.97;13.15;;;12.60;82.70;;;12.09;68.77;93233.22;4972579;28;20226;-82
2021/11/04 01:18:10;;;;;;;106.18;13.25;;;12.50;82.60;;;12.11;68.36;93222.47;4926122;29;20232;-83
2021/11/04 01:20:38;;;;;;;97.30;13.20;;;12.60;82.70;;;12.11;69.00;93222.47;4923085;29;20233;-83
2021/11/04 01:23:05;;;;;;;100.25;13.15;;;12.50;82.60;;;12.05;68.81;93212.91;4923037;29;20214;-82
2021/11/04 01:25:32;;;;;;;135.40;14.93;;;12.50;82.60;;;12.06;68.92;93191.66;4948728;28;20249;-81
2021/11/04 01:28:00;;;;;;;99.43;13.73;;;12.60;82.70;;;11.99;69.17;93191.03;4941596;28;20289;-82
2021/11/04 01:30:27;;;;;;;124.78;14.23;;;12.50;82.60;;;12.03;69.07;93199.22;4974125;28;20731;-82
2021/11/04 01:32:54;;;;;;;134.60;14.60;;;12.50;83.50;;;12.03;68.90;93181.63;4941923;28;20245;-82
2021/11/04 01:35:21;;;;;;;103.47;14.23;;;12.60;82.70;;;11.99;69.20;93176.06;4940026;28;20202;-83
2021/11/04 01:37:48;;;;;;;145.65;15.93;;;12.50;82.70;;;11.99;68.98;93173.44;4907399;29;20227;-82
2021/11/04 01:40:15;;;;;;;177.50;16.48;;;12.50;82.70;;;12.00;69.14;93171.63;4922849;29;20257;-82
2021/11/04 01:42:42;;;;;;;161.65;14.00;;;12.50;82.70;;;11.94;69.22;93148.91;4922819;29;20611;-82
2021/11/04 01:45:09;;;;;;;161.57;14.30;;;12.50;82.80;;;11.98;68.94;93160.53;4935535;28;20210;-82
2021/11/04 01:47:40;;;;;;;132.80;14.63;;;12.40;82.60;;;11.95;69.25;93161.00;4941582;28;20218;-81
2021/11/04 01:50:08;;;;;;;161.60;15.85;;;12.40;82.60;;;11.94;69.49;93164.69;4942463;28;20198;-83
2021/11/04 01:52:36;;;;;;;142.75;14.75;;;12.50;82.80;;;11.94;69.14;93167.31;4957401;28;20308;-82
2021/11/04 01:55:04;;;;;;;142.27;14.55;;;12.50;82.80;;;11.93;69.04;93152.56;4936842;28;20395;-82
2021/11/04 01:57:31;;;;;;;121.15;13.98;;;12.40;82.70;;;11.93;69.32;93152.56;4941244;28;20240;-83
2021/11/04 01:59:58;;;;;;;129.18;15.20;;;12.40;82.70;;;11.93;68.70;93134.19;4941670;28;20198;-82
2021/11/04 02:02:28;;;;;;;132.60;15.82;;;12.40;82.80;;;11.92;69.26;93143.88;4957331;28;20297;-83
2021/11/04 02:05:07;;;;;;;109.07;13.00;;;12.40;82.90;;;11.91;69.21;93125.75;4940630;28;20230;-82
2021/11/04 02:08:36;;;;;;;124.63;13.25;;;12.40;83.00;;;11.89;69.27;93131.25;4923458;29;20501;-82
2021/11/04 02:11:17;;;;;;;190.30;15.65;;;12.40;83.10;;;11.89;69.20;93122.56;4936649;28;20249;-83
2021/11/04 02:14:11;;;;;;;135.85;13.90;;;12.40;83.80;;;11.87;69.22;93132.53;4936346;28;20285;-81
2021/11/04 02:16:40;;;;;;;142.05;13.48;;;12.40;83.90;;;11.85;69.38;93120.44;4951760;28;20229;-83
2021/11/04 02:19:21;;;;;;;164.25;15.35;;;12.40;82.90;;;11.83;69.29;93113.84;4944419;28;20237;-82
2021/11/04 02:21:57;;;;;;;197.93;16.35;;;12.30;83.00;;;11.84;69.33;93118.84;4937389;28;20222;-82
2021/11/04 02:25:01;;;;;;;193.25;14.88;;;12.30;83.00;;;11.81;69.23;93124.56;4931674;28;20319;-81
2021/11/04 02:27:29;;;;;;;180.93;14.98;;;12.30;83.10;;;11.80;69.49;93125.63;4941474;28;20210;-81
2021/11/04 02:29:56;;;;;;;136.77;15.80;;;12.40;83.00;;;11.75;69.59;93122.91;4944016;28;20225;-81
2021/11/04 02:32:24;;;;;;;116.65;13.70;;;12.40;83.00;;;11.80;69.59;93107.25;4946666;28;20643;-82
2021/11/04 02:34:53;;;;;;;149.63;14.68;;;12.30;83.00;;;11.79;69.54;93124.03;4957594;28;20191;-82
2021/11/04 02:37:20;;;;;;;132.18;14.27;;;12.30;83.10;;;11.76;69.52;93118.47;4949261;28;20225;-83
2021/11/04 02:39:48;;;;;;;125.72;15.60;;;12.40;83.10;;;11.80;69.48;93130.88;4950782;28;20189;-81
2021/11/04 02:42:16;;;;;;;123.38;14.85;;;12.30;83.10;;;11.82;69.81;93131.41;4932540;28;20221;-81
2021/11/04 02:44:43;;;;;;;123.90;15.02;;;12.30;83.10;;;11.80;69.58;93125.63;4945293;28;20199;-82
2021/11/04 02:47:10;;;;;;;143.52;15.30;;;12.30;83.10;;;11.83;69.29;93127.75;4938798;28;20226;-82
2021/11/04 02:49:39;;;;;;;75.80;14.32;;;12.30;83.10;;;11.84;69.11;93125.94;4938612;28;20205;-81
2021/11/04 02:52:07;;;;;;;117.72;15.85;;;12.30;83.10;;;11.77;69.70;93101.69;4938887;28;20214;-82
2021/11/04 02:54:34;;;;;;;103.65;14.25;;;12.30;83.10;;;11.77;69.49;93093.81;4938561;29;20293;-82
2021/11/04 02:57:01;;;;;;;148.00;16.17;;;12.30;83.20;;;11.83;69.54;93092.81;4945748;28;20236;-82
2021/11/04 02:59:28;;;;;;;89.53;14.40;;;12.30;83.20;;;11.81;69.66;93082.53;4958390;28;20208;-82
2021/11/04 03:02:01;;;;;;;149.00;15.75;;;12.30;83.20;;;11.80;69.48;93073.09;4958719;28;20604;-81
2021/11/04 03:04:28;;;;;;;95.50;15.35;;;12.30;83.20;;;11.81;69.57;93079.13;4939745;28;20210;-81
2021/11/04 03:06:55;;;;;;;118.82;16.30;;;12.20;83.10;;;11.81;69.15;93077.28;4923403;29;20647;-81
2021/11/04 03:09:23;;;;;;;137.30;18.23;;;12.30;83.20;;;11.81;69.53;93077.28;4923505;29;20195;-82
2021/11/04 03:11:50;;;;;;;116.65;16.38;;;12.30;83.20;;;11.80;69.63;93067.84;4923151;29;20302;-82
2021/11/04 03:14:56;;;;;;;98.32;16.10;;;12.30;83.20;;;11.77;69.77;93057.81;4922994;29;20250;-81
2021/11/04 03:17:26;;;;;;;124.18;16.05;;;12.30;83.30;;;11.77;69.67;93047.31;4927758;29;20640;-81
2021/11/04 03:19:54;;;;;;;101.78;15.05;;;12.20;83.10;;;11.78;69.85;93045.47;4925320;29;20672;-82
2021/11/04 03:22:22;;;;;;;80.70;15.25;;;12.30;83.30;;;11.77;69.63;93039.44;4940887;29;20751;-82
2021/11/04 03:24:49;;;;;;;104.05;15.73;;;12.20;83.20;;;11.78;69.76;93033.13;4936122;28;20209;-82
2021/11/04 03:27:17;;;;;;;87.28;15.32;;;12.30;83.30;;;11.75;69.64;93028.38;4943902;28;20328;-80
2021/11/04 03:29:49;;;;;;;98.60;16.70;;;12.20;83.20;;;11.77;69.51;93020.25;4944342;28;20663;-81
2021/11/04 03:32:21;;;;;;;87.13;15.30;;;12.20;83.20;;;11.77;69.49;93007.91;4943775;28;20758;-81
2021/11/04 03:34:50;;;;;;;80.03;16.55;;;12.20;83.30;;;11.77;69.88;93002.66;4939240;28;20226;-81
2021/11/04 03:37:20;;;;;;;71.80;15.77;;;12.30;83.30;;;11.77;69.98;92997.41;4924275;29;20240;-81
2021/11/04 03:39:49;;;;;;;80.40;17.42;;;12.20;83.20;;;11.72;69.78;92989.47;4924762;29;20216;-82
2021/11/04 03:42:17;;;;;;;56.70;16.08;;;12.20;83.30;;;11.75;69.72;92994.22;4924897;29;20223;-82
2021/11/04 03:44:44;;;;;;;64.78;16.25;;;12.20;83.30;;;11.79;69.64;92986.66;4940881;28;20206;-81
2021/11/04 03:47:15;;;;;;;74.15;16.83;;;12.20;83.30;;;11.80;69.57;92969.84;4932203;29;20227;-80
2021/11/04 03:49:48;;;;;;;48.55;16.88;;;12.20;83.30;;;11.78;69.62;92969.28;4924975;29;20614;-80
2021/11/04 03:55:17;;;;;;;87.82;18.10;;;12.20;83.30;;;11.75;69.67;92965.34;4937302;28;20205;-80
2021/11/04 03:57:46;;;;;;;96.40;18.55;;;12.30;83.40;;;11.78;69.86;92966.66;4943185;28;20234;-81
2021/11/04 04:00:15;;;;;;;112.95;19.10;;;12.20;83.40;;;11.78;69.87;92966.66;4943410;28;20205;-80
2021/11/04 04:02:48;;;;;;;107.78;17.98;;;12.20;83.40;;;11.78;69.72;92972.72;4943383;28;20317;-81
2021/11/04 04:05:16;;;;;;;71.18;17.13;;;12.20;83.90;;;11.77;69.88;92965.88;4942580;28;20285;-80
2021/11/04 04:07:44;;;;;;;74.70;17.38;;;12.20;83.40;;;11.80;69.88;92964.59;4940723;28;20305;-81
2021/11/04 04:10:11;;;;;;;84.97;17.42;;;12.20;83.40;;;11.80;69.78;92967.22;4943390;28;20230;-81
2021/11/04 04:12:38;;;;;;;71.85;16.08;;;12.20;83.50;;;11.82;69.80;92954.66;4943004;28;20214;-81
2021/11/04 04:15:06;;;;;;;76.13;16.42;;;12.30;83.50;;;11.80;69.73;92970.66;4948946;28;20614;-80
2021/11/04 04:17:33;;;;;;;70.82;16.50;;;12.30;83.50;;;11.83;69.81;92978.03;4943137;28;20230;-80
2021/11/04 04:20:00;;;;;;;95.38;16.17;;;12.30;83.50;;;11.85;69.68;92975.16;4943527;28;20270;-81
2021/11/04 04:22:29;;;;;;;121.13;18.50;;;12.30;83.50;;;11.86;69.81;92979.38;4943116;28;20284;-80
2021/11/04 04:24:56;;;;;;;123.75;18.50;;;12.30;83.50;;;11.83;69.93;92978.03;4938318;28;20252;-80
2021/11/04 04:27:24;;;;;;;128.05;18.40;;;12.30;83.60;;;11.83;69.76;92975.41;4959191;28;20243;-81
2021/11/04 04:29:51;;;;;;;113.95;18.02;;;12.30;83.50;;;11.83;69.70;92961.50;4943347;28;20249;-81
2021/11/04 04:32:22;;;;;;;141.98;16.98;;;12.30;83.50;;;11.84;70.00;92934.97;4958633;28;20763;-80
2021/11/04 04:34:49;;;;;;;84.40;16.48;;;12.30;83.50;;;11.84;69.87;92918.44;4939230;29;20254;-81
2021/11/04 04:37:16;;;;;;;129.85;18.90;;;12.20;83.40;;;11.83;69.81;92917.63;4975996;28;20349;-81
2021/11/04 04:39:44;;;;;;;91.75;17.10;;;12.30;83.50;;;11.77;69.85;92915.97;4947818;28;21094;-81
2021/11/04 04:42:11;;;;;;;78.03;16.80;;;12.20;83.40;;;11.82;69.93;92936.25;4935256;28;20205;-81
2021/11/04 04:44:38;;;;;;;37.38;14.80;;;12.30;83.50;;;11.83;69.92;92920.25;4934485;28;20233;-81
2021/11/04 04:47:05;;;;;;;74.97;16.92;;;12.30;83.60;;;11.84;69.83;92905.28;4934410;28;20237;-82
2021/11/04 04:49:33;;;;;;;131.75;17.25;;;12.30;83.50;;;11.83;69.95;92904.47;4949788;28;20564;-81
2021/11/04 04:52:00;;;;;;;98.15;16.90;;;12.30;83.60;;;11.83;70.05;92907.09;4966813;28;20293;-80
2021/11/04 04:54:29;;;;;;;125.93;18.20;;;12.30;83.60;;;11.82;69.92;92881.09;4936072;29;20705;-82
2021/11/04 04:56:56;;;;;;;94.32;16.33;;;12.30;83.60;;;11.78;69.80;92878.19;4937796;28;20329;-81
2021/11/04 04:59:24;;;;;;;105.40;16.65;;;12.30;83.50;;;11.79;70.00;92876.34;4923227;28;22091;-82
2021/11/04 05:01:51;;;;;;;106.45;16.75;;;12.30;83.60;;;11.80;69.88;92875.28;4938632;28;20223;-81
2021/11/04 05:04:18;;;;;;;118.00;16.80;;;12.30;83.60;;;11.80;69.84;92880.53;4955432;28;20519;-81
2021/11/04 05:06:45;;;;;;;83.85;17.63;;;12.40;83.60;;;11.77;70.09;92883.69;4956340;28;20238;-82
2021/11/04 05:09:12;;;;;;;129.95;18.00;;;12.30;83.60;;;11.76;69.86;92884.72;4940544;28;20211;-81
2021/11/04 05:11:39;;;;;;;110.50;16.50;;;12.30;83.60;;;11.78;70.25;92893.94;4942080;28;20620;-82
2021/11/04 05:14:07;;;;;;;124.30;17.27;;;12.30;83.60;;;11.77;69.94;92887.09;4939590;28;20233;-79
2021/11/04 05:16:34;;;;;;;139.57;18.58;;;12.30;83.60;;;11.71;70.08;92876.81;4924697;28;20261;-81
2021/11/04 05:19:02;;;;;;;143.68;18.40;;;12.20;83.60;;;11.76;70.13;92885.50;4941880;28;20226;-81
2021/11/04 05:21:29;;;;;;;107.43;16.80;;;12.20;83.60;;;11.74;70.11;92865.78;4942298;28;20272;-82
2021/11/04 05:23:56;;;;;;;121.63;17.48;;;12.20;83.60;;;11.78;70.33;92870.31;4940622;28;20253;-81
2021/11/04 05:26:23;;;;;;;111.28;17.63;;;12.20;83.60;;;11.76;70.23;92847.94;4919705;29;20306;-80
2021/11/04 05:28:51;;;;;;;107.15;16.85;;;12.20;83.70;;;11.78;70.21;92856.34;4933116;28;20194;-82
2021/11/04 05:31:18;;;;;;;122.72;17.20;;;12.20;83.70;;;11.79;70.02;92843.00;4942035;28;20210;-81
2021/11/04 05:33:47;;;;;;;114.78;17.88;;;12.20;83.70;;;11.79;69.91;92845.63;4941922;28;20236;-81
2021/11/04 05:36:14;;;;;;;129.30;18.63;;;12.20;83.70;;;11.79;70.27;92847.44;4952767;29;20318;-81
2021/11/04 05:38:41;;;;;;;131.38;19.85;;;12.20;83.70;;;11.76;70.34;92847.94;4938290;29;20705;-81
2021/11/04 05:41:09;;;;;;;94.38;17.35;;;12.30;83.80;;;11.78;70.20;92849.28;4955728;29;20211;-81
2021/11/04 05:43:37;;;;;;;100.47;18.35;;;12.20;83.80;;;11.77;70.16;92845.06;4943260;28;20209;-81
2021/11/04 05:46:04;;;;;;;122.03;18.63;;;12.20;83.90;;;11.78;70.18;92867.66;4940387;28;20225;-81
2021/11/04 05:48:32;;;;;;;113.65;18.55;;;12.20;83.80;;;11.79;70.21;92856.13;4941957;28;20655;-83
2021/11/04 05:50:59;;;;;;;102.97;16.92;;;12.20;83.90;;;11.80;69.99;92862.16;4942104;28;20277;-83
2021/11/04 05:53:26;;;;;;;104.75;18.55;;;12.30;84.00;;;11.75;70.06;92876.03;4941213;28;20209;-82
2021/11/04 05:55:53;;;;;;;103.70;18.80;;;12.20;83.90;;;11.82;70.44;92884.50;4973812;28;20194;-82
2021/11/04 05:58:21;;;;;;;99.78;18.17;;;12.20;83.90;;;11.82;70.23;92904.75;4936221;29;20261;-81
2021/11/04 06:00:48;;;;;;;73.45;18.75;;;12.20;84.00;;;11.77;70.44;92933.59;4943832;28;20204;-82
2021/11/04 06:03:16;;;;;;;55.53;18.15;;;12.30;84.00;;;11.83;70.23;92958.84;4938962;28;20207;-81
2021/11/04 06:05:43;;;;;;;32.60;18.23;;;12.30;84.00;;;11.82;70.32;92950.16;4950267;28;20201;-80
2021/11/04 06:08:10;;;;;;;19.77;15.38;;;12.30;84.00;;;11.80;70.48;92947.03;4950966;28;20256;-81
2021/11/04 06:10:37;;;;;;;15.55;13.70;;;12.30;84.10;;;11.75;70.27;92948.78;4939730;28;20193;-79
2021/11/04 06:13:04;;;;;;;14.57;13.07;;;12.30;84.00;;;11.84;70.51;92961.22;4950297;28;20202;-80
2021/11/04 06:15:31;;;;;;;10.75;9.68;;;12.30;84.10;;;11.82;70.37;92954.66;4948926;28;20286;-80
2021/11/04 06:17:59;;;;;;;11.30;9.95;;;12.30;84.00;;;11.81;70.37;92993.22;4950165;28;20217;-80
2021/11/04 06:20:26;;;;;;;9.73;8.63;;;12.30;83.70;;;11.75;69.63;92993.44;4945510;28;20545;-81
2021/11/04 06:22:54;;;;;;;11.70;9.82;;;12.30;83.10;;;11.62;69.37;92990.16;4935992;29;20227;-81
2021/11/04 06:25:22;;;;;;;9.07;7.82;;;12.20;82.60;;;11.50;69.05;93003.41;4929365;28;20277;-81
2021/11/04 06:27:49;;;;;;;11.63;10.13;;;12.20;82.30;;;11.33;68.89;93021.06;4947563;28;20688;-82
2021/11/04 06:30:16;;;;;;;7.45;6.13;;;12.10;81.80;;;11.13;68.06;93013.69;4940337;28;20190;-81
2021/11/04 06:32:44;;;;;;;5.75;5.15;;;12.00;81.10;;;10.90;67.67;93012.88;4926358;29;20246;-81
2021/11/04 06:35:12;;;;;;;6.82;5.47;;;11.80;80.70;;;10.69;68.23;93035.34;4933841;29;20661;-81
2021/11/04 06:37:39;;;;;;;5.32;4.82;;;11.70;80.70;;;10.49;68.69;93044.47;4971538;28;20308;-81
2021/11/04 06:40:08;;;;;;;6.53;5.32;;;11.50;80.90;;;10.37;68.93;93034.06;4946422;28;20187;-81
2021/11/04 06:42:37;;;;;;;6.28;5.68;;;11.40;81.00;;;10.25;69.10;93023.63;4929214;28;20223;-81
2021/11/04 06:45:06;;;;;;;7.03;6.20;;;11.30;81.10;;;10.18;69.19;93053.63;4952008;28;20289;-81
2021/11/04 06:47:52;;;;;;;6.55;4.55;;;11.20;81.20;;;10.05;69.18;93050.25;4938203;28;20226;-81
2021/11/04 06:50:26;;;;;;;4.70;4.15;;;11.00;81.10;;;9.98;69.50;93054.06;4936897;28;20273;-81
2021/11/04 06:53:08;;;;;;;5.38;4.88;;;10.90;81.30;;;9.91;69.41;93064.66;4949316;28;20222;-81
2021/11/04 06:55:42;;;;;;;5.93;4.97;;;10.80;81.30;;;9.84;69.30;93066.59;4937732;28;20249;-81
2021/11/04 06:58:14;;;;;;;4.88;4.32;;;10.80;81.40;;;9.76;69.46;93070.41;4947895;28;20305;-81
2021/11/04 07:00:47;;;;;;;5.50;4.80;;;10.70;81.30;;;9.71;69.69;93081.56;4932557;28;20262;-81
2021/11/04 07:03:27;;;;;;;5.30;4.57;;;10.60;81.50;;;9.68;69.62;93091.69;4965178;28;20248;-81
2021/11/04 07:05:59;;;;;;;4.53;4.00;;;10.60;81.60;;;9.63;69.75;93100.25;4962825;28;20423;-81
2021/11/04 07:08:28;;;;;;;5.18;4.68;;;10.50;81.60;;;9.56;69.75;93104.81;4944926;28;20195;-82
2021/11/04 07:10:59;;;;;;;5.60;4.43;;;10.50;81.80;;;9.55;69.71;93111.88;4948416;28;20229;-81
2021/11/04 07:13:31;;;;;;;4.32;3.92;;;10.40;81.70;;;9.57;69.74;93104.59;4949256;28;20731;-82
2021/11/04 07:16:01;;;;;;;3.65;3.28;;;10.30;81.80;;;9.53;69.66;93147.16;4950827;28;20261;-82
2021/11/04 07:18:29;;;;;;;3.22;2.83;;;10.40;81.80;;;9.47;69.70;93140.22;4949894;28;20681;-82
2021/11/04 07:21:16;;;;;;;3.10;2.80;;;10.30;81.70;;;9.47;69.33;93140.22;4948520;28;20199;-81
2021/11/04 07:23:59;;;;;;;3.20;2.72;;;10.20;81.40;;;9.40;69.36;93153.41;4965197;28;20188;-82
2021/11/04 07:26:35;;;;;;;2.50;2.30;;;10.20;81.50;;;9.37;69.15;93157.25;4935527;28;20232;-81
2021/11/04 07:29:07;;;;;;;2.53;2.33;;;10.20;81.30;;;9.35;69.31;93154.09;4931574;28;20206;-81
2021/11/04 07:31:41;;;;;;;2.28;2.08;;;10.10;81.30;;;9.33;69.24;93168.44;4930381;28;20223;-81
2021/11/04 07:34:12;;;;;;;2.40;2.20;;;10.10;81.40;;;9.31;69.18;93166.03;4922101;28;20199;-82
2021/11/04 07:36:40;;;;;;;2.83;2.47;;;10.00;81.40;;;9.22;69.58;93162.94;4939229;28;20294;-83
2021/11/04 07:39:11;;;;;;;2.55;2.20;;;10.00;81.30;;;9.25;69.19;93175.59;4946889;28;20242;-83
2021/11/04 07:41:39;;;;;;;3.47;2.20;;;10.00;81.40;;;9.22;69.29;93188.31;4931433;28;20623;-81
2021/11/04 07:44:06;;;;;;;2.55;2.10;;;9.90;82.50;;;9.23;69.29;93197.78;4956149;28;20716;-82
2021/11/04 07:46:34;;;;;;;4.05;3.45;;;9.90;82.60;;;9.22;69.25;93196.97;4941100;28;20701;-82
2021/11/04 07:49:01;;;;;;;2.35;2.13;;;9.90;82.70;;;9.25;69.46;93200.94;4942125;28;20215;-83
2021/11/04 07:51:28;;;;;;;4.93;3.05;;;10.00;81.80;;;9.29;69.88;93197.66;4942409;28;20223;-83
2021/11/04 07:53:58;;;;;;;5.53;3.35;;;9.90;83.20;;;9.38;69.61;93211.19;4942049;28;20187;-83
2021/11/04 07:56:25;;;;;;;3.35;2.50;;;9.90;83.20;;;9.42;69.59;93222.81;4941236;28;20238;-81
2021/11/04 07:58:52;;;;;;;2.58;2.08;;;10.00;82.00;;;9.42;nan;93204.50;4941849;28;20254;-83
2021/11/04 08:01:19;;;;;;;2.10;1.90;;;10.00;82.00;;;9.50;69.33;93231.38;4943730;28;20245;-83
2021/11/04 08:03:46;;;;;;;2.15;1.95;;;10.00;81.90;;;9.44;68.94;93233.84;4938749;28;20199;-82
2021/11/04 08:06:16;;;;;;;1.95;1.70;;;10.10;81.70;;;9.46;69.02;93228.41;4933523;28;20219;-82
2021/11/04 08:08:43;;;;;;;2.35;1.83;;;10.10;81.60;;;9.50;69.35;93231.38;4932085;28;20199;-81
2021/11/04 08:11:11;;;;;;;1.85;1.60;;;10.10;81.80;;;9.56;69.73;93233.84;4933777;28;20261;-82
2021/11/04 08:13:39;;;;;;;1.60;1.50;;;10.10;82.10;;;9.66;69.81;93243.75;4933919;28;20282;-81
2021/11/04 08:16:06;;;;;;;1.27;1.27;;;10.10;82.30;;;9.72;69.05;93244.69;4932192;28;20701;-82
2021/11/04 08:18:35;;;;;;;1.83;1.30;;;10.20;82.10;;;9.76;68.16;93253.66;4949439;28;20257;-83
2021/11/04 08:21:02;;;;;;;0.95;0.95;;;10.20;81.70;;;9.77;68.50;93256.03;4934463;28;20222;-83
2021/11/04 08:23:29;;;;;;;2.75;1.10;;;10.20;81.60;;;9.71;67.54;93259.56;4948539;28;20218;-83
2021/11/04 08:25:56;;;;;;;1.00;1.00;;;10.20;81.10;;;9.68;66.88;93286.22;4933212;28;20199;-83
2021/11/04 08:28:24;;;;;;;0.80;0.80;;;10.30;80.70;;;9.56;65.38;93283.59;4934627;28;20199;-84
2021/11/04 08:30:51;;;;;;;0.70;0.70;;;10.20;79.50;;;9.39;66.28;93275.59;4933045;28;20213;-83
2021/11/04 08:33:19;;;;;;;0.80;0.80;;;10.10;79.50;;;9.35;66.31;93279.69;4948724;28;20195;-83
2021/11/04 08:35:47;;;;;;;1.73;0.90;;;10.10;79.40;;;9.32;66.54;93290.59;4951690;28;20253;-84
2021/11/04 08:38:18;;;;;;;0.75;0.75;;;10.00;79.40;;;9.29;66.71;93301.50;4977914;28;20593;-83
2021/11/04 08:40:45;;;;;;;0.70;0.70;;;10.00;79.70;;;9.26;66.55;93284.44;4978391;28;20191;-83
2021/11/04 08:43:12;;;;;;;0.80;0.80;;;10.00;80.00;;;9.36;66.63;93306.63;4978628;28;20198;-83
2021/11/04 08:45:40;;;;;;;0.80;0.80;;;9.90;81.10;;;9.38;66.85;93296.75;4961829;28;20293;-82
2021/11/04 08:48:07;;;;;;;0.85;0.85;;;9.90;81.20;;;9.50;66.23;93294.97;4960987;28;20300;-83
2021/11/04 08:50:34;;;;;;;0.85;0.85;;;10.00;80.10;;;9.57;65.96;93323.63;4961866;28;20411;-83
2021/11/04 08:53:01;;;;;;;0.80;0.80;;;10.00;80.10;;;9.64;64.79;93313.84;4961975;28;20703;-84
2021/11/04 08:55:28;;;;;;;0.80;0.80;;;10.10;79.90;;;9.66;63.99;93322.28;4961365;28;20221;-83
2021/11/04 08:57:55;;;;;;;1.00;1.00;;;10.10;79.50;;;9.80;64.44;93341.19;4961921;28;20257;-83
2021/11/04 09:00:22;;;;;;;0.90;0.90;;;10.20;79.80;;;9.91;62.85;93337.00;4961951;28;20201;-82
2021/11/04 09:02:49;;;;;;;0.70;0.70;;;10.20;78.70;;;9.93;62.29;93358.53;4978022;28;20268;-83
2021/11/04 09:05:18;;;;;;;0.80;0.80;;;10.30;78.10;;;9.91;62.04;93350.91;4945150;28;20202;-83
2021/11/04 09:07:46;;;;;;;1.08;0.90;;;10.30;78.10;;;9.93;62.21;93358.53;4958311;28;20318;-84
2021/11/04 09:10:16;;;;;;;0.90;0.90;;;10.40;77.60;;;9.91;61.89;93355.34;4954996;28;20198;-84
2021/11/04 09:12:43;;;;;;;0.90;0.90;;;10.40;77.50;;;9.90;62.02;93357.16;4961907;28;20280;-83
2021/11/04 09:15:12;;;;;;;0.90;0.90;;;10.40;77.30;;;9.96;63.06;93365.13;4961797;28;20198;-84
2021/11/04 09:17:42;;;;;;;0.80;0.80;;;10.50;77.70;;;10.00;62.75;93374.94;4959966;28;20287;-83
2021/11/04 09:20:14;;;;;;;0.77;0.77;;;10.50;77.70;;;10.07;62.32;93386.13;4933966;28;20220;-83
2021/11/04 09:22:45;;;;;;;0.80;0.80;;;10.60;77.30;;;10.05;61.89;93388.16;4934680;28;20274;-84
2021/11/04 09:25:14;;;;;;;0.90;0.90;;;10.60;77.10;;;10.00;61.77;93401.13;4932411;28;20195;-83
2021/11/04 09:27:42;;;;;;;1.00;1.00;;;10.60;76.70;;;9.96;61.54;93401.81;4956581;28;20211;-84
2021/11/04 09:30:09;;;;;;;2.25;1.00;;;10.60;76.50;;;9.94;62.06;93402.81;4932782;28;20286;-83
2021/11/04 09:32:39;;;;;;;1.00;1.00;;;10.60;76.70;;;10.02;61.70;93411.38;4947202;28;20222;-84
2021/11/04 09:35:06;;;;;;;1.70;1.60;;;10.60;76.60;;;10.02;61.92;93427.91;4956234;28;20248;-84
2021/11/04 09:37:34;;;;;;;1.40;1.30;;;10.60;76.70;;;10.02;61.84;93420.06;4932881;28;20219;-83
2021/11/04 09:40:04;;;;;;;1.67;1.58;;;10.60;76.60;;;10.09;61.28;93443.50;4946645;28;20195;-83
2021/11/04 09:42:31;;;;;;;1.20;1.20;;;10.60;76.50;;;10.08;60.82;93434.88;4930775;28;20210;-83
2021/11/04 09:44:59;;;;;;;0.95;0.95;;;10.70;76.10;;;10.03;60.25;93439.19;4933079;28;20246;-82
2021/11/04 09:47:30;;;;;;;1.20;1.10;;;10.70;75.80;;;10.09;61.52;93438.28;4963729;28;20772;-83
2021/11/04 09:50:05;;;;;;;0.90;0.90;;;10.60;76.20;;;10.10;60.93;93429.41;4949955;28;20206;-83
2021/11/04 09:52:35;;;;;;;1.10;1.10;;;10.60;75.90;;;10.05;60.52;93440.53;4950761;28;20367;-84
2021/11/04 09:55:08;;;;;;;1.00;1.00;;;10.70;76.20;;;10.06;60.77;93441.38;4951820;28;20212;-82
2021/11/04 09:57:40;;;;;;;1.00;1.00;;;10.60;75.60;;;10.08;60.96;93444.53;4930546;28;20225;-83
2021/11/04 10:00:08;;;;;;;1.00;1.00;;;10.70;75.70;;;10.14;60.04;93459.34;4954962;28;20194;-83
2021/11/04 10:02:36;;;;;;;1.00;1.00;;;10.60;75.30;;;10.13;60.04;93456.97;4954799;28;20280;-83
2021/11/04 10:05:07;;;;;;;0.93;0.93;;;10.60;75.40;;;10.27;61.30;93458.38;4932068;28;20199;-83
2021/11/04 10:07:49;;;;;;;0.90;0.90;;;10.70;76.20;;;10.47;60.87;93480.88;4931823;28;20223;-83
2021/11/04 10:10:20;;;;;;;1.00;0.90;;;10.70;76.10;;;10.60;60.54;93478.03;4939357;28;20224;-82
2021/11/04 10:13:06;;;;;;;1.20;1.10;;;10.80;76.30;;;10.64;60.38;93467.88;4939109;28;20218;-82
2021/11/04 10:15:38;;;;;;;1.30;1.00;;;10.90;76.00;;;10.64;58.93;93486.25;4955778;28;20202;-83
2021/11/04 10:18:20;;;;;;;1.00;1.00;;;11.00;75.30;;;10.62;59.92;93523.19;4924458;28;20236;-82
2021/11/04 10:21:03;;;;;;;1.20;1.15;;;11.00;75.30;;;10.54;59.49;93532.16;4939553;28;20206;-83
2021/11/04 10:23:48;;;;;;;3.25;1.30;;;11.10;75.00;;;10.46;59.96;93539.56;4939929;28;20202;-83
2021/11/04 10:26:19;;;;;;;1.05;1.05;;;11.00;75.20;;;10.42;59.23;93557.56;4936743;28;20244;-81